Aeroporto :
LOGIN :

Iscrizione | Disclaimer

   EN    FR    IT 

 










Sommario :    VFR   VFR Marginale   IFR   IFR Intensivo   IFR Molto Intensivo
Visibilità : 
Base nubi : 
>= 8 km
>= 3000ft
5 / 8 km
1000 / 3000 ft
1500m / 5 km
500 / 1000 ft
800 / 1500m
200 / 500 ft
< 800m
< 200 ft
Simboli :   Temporali  Nebbia  Neve Forte  Precipitazioni Forti  Vento > 20 kt
SIGMETs :   Varie  Temporali  Ghiacco  Turbolenza  Onda orograficha  Ceneri Vulcaniche







- Altitudine del aeroporto : 1020 ft
- Codice IATA : ILZ


LZZI - Žilina

ULTIMO METAR :
  • 211830Z 27003KT CAVOK 18/17 Q1021

METARs OBSOLETI :
  • 211800Z VRB02KT CAVOK 19/17 Q1021
  • 211730Z 36004KT CAVOK 20/17 Q1021
  • 211700Z 07004KT CAVOK 20/17 Q1021
  • 211630Z 05004KT 010V070 9999 FEW017 SCT080 20/16 Q1021
  • 211600Z 04004KT 9999 FEW016 SCT079 BKN100 20/17 Q1021

TAF TAF LZZI
Valido dal 21 a 18 ore il 22 a 03 ore UTC


211700Z 2118/2203 07006KT 9999 FEW017 SCT070
PROB30
TEMPO 2118/2121 6000 -RA
BECMG 2122/2200 VRB02KT 2500 BR FEW002 BKN009
PROB30
TEMPO 2200/2203 0800 FG BKN001
Nessun NOTAM noto per questo aeroporto.



MetMap, La meteo Aeronautica in un colpo d'occhio ! - Copyright ORBIFLY Dicembre 2007 - Disclaimer

ORBIFLY MET'MAP TEAM :

Programmazione e sviluppo : Alexandra Zaïnal
Concezione e sviluppo : Baudouin d'Aumeries
Co-Programmazione e sviluppo : Marc-Olivier Méhu
Supporto tecnico e logistico : Manuel Goepfert
Aiuto per la traduzione : Arnaldo La Scala

Contatto : metmap@orbifly.com




FONTI E CREDITI :

   NOAA